Aviation Digital Data Service (ADDS)

Output produced by METARs form (1541 UTC 23 January 2019)
found at http://www.aviationweather.gov/metar/data/
 
METAR text: HECA 231530Z 16002KT 9999 BKN025 19/01 Q1010 NOSIG
Conditions at: HECA (CAIRO INTL AIRPO, EG) observed 1530 UTC 23 January 2019
Temperature: 19.0°C (66°F)
Dewpoint: 1.0°C (34°F) [RH = 30%]
Pressure (altimeter): 29.82 inches Hg (1010.0 mb)
Winds: from the SSE (160 degrees) at 2 MPH (2 knots; 1.0 m/s)
Visibility: 6 or more miles (10+ km)
Ceiling: 2500 feet AGL
Clouds: broken clouds at 2500 feet AGL
Weather: no significant weather observed at this time

METAR text: HECA 231500Z 00000KT 9999 BKN025 20/04 Q1010 NOSIG
Conditions at: HECA (CAIRO INTL AIRPO, EG) observed 1500 UTC 23 January 2019
Temperature: 20.0°C (68°F)
Dewpoint: 4.0°C (39°F) [RH = 35%]
Pressure (altimeter): 29.82 inches Hg (1010.0 mb)
Winds: calm
Visibility: 6 or more miles (10+ km)
Ceiling: 2500 feet AGL
Clouds: broken clouds at 2500 feet AGL
Weather: no significant weather observed at this time

METAR text: HECA 231430Z 31002KT 9999 BKN025 20/05 Q1011 NOSIG
Conditions at: HECA (CAIRO INTL AIRPO, EG) observed 1430 UTC 23 January 2019
Temperature: 20.0°C (68°F)
Dewpoint: 5.0°C (41°F) [RH = 37%]
Pressure (altimeter): 29.85 inches Hg (1011.0 mb)
Winds: from the NW (310 degrees) at 2 MPH (2 knots; 1.0 m/s)
Visibility: 6 or more miles (10+ km)
Ceiling: 2500 feet AGL
Clouds: broken clouds at 2500 feet AGL
Weather: no significant weather observed at this time

METAR text: HECA 231400Z 00000KT 9999 BKN025 20/05 Q1011 NOSIG
Conditions at: HECA (CAIRO INTL AIRPO, EG) observed 1400 UTC 23 January 2019
Temperature: 20.0°C (68°F)
Dewpoint: 5.0°C (41°F) [RH = 37%]
Pressure (altimeter): 29.85 inches Hg (1011.0 mb)
Winds: calm
Visibility: 6 or more miles (10+ km)
Ceiling: 2500 feet AGL
Clouds: broken clouds at 2500 feet AGL
Weather: no significant weather observed at this time

METAR text: HECA 231330Z 00000KT 9999 BKN025 20/04 Q1011 NOSIG
Conditions at: HECA (CAIRO INTL AIRPO, EG) observed 1330 UTC 23 January 2019
Temperature: 20.0°C (68°F)
Dewpoint: 4.0°C (39°F) [RH = 35%]
Pressure (altimeter): 29.85 inches Hg (1011.0 mb)
Winds: calm
Visibility: 6 or more miles (10+ km)
Ceiling: 2500 feet AGL
Clouds: broken clouds at 2500 feet AGL
Weather: no significant weather observed at this time

METAR text: HECA 231300Z 00000KT 9999 BKN025 20/04 Q1011 NOSIG
Conditions at: HECA (CAIRO INTL AIRPO, EG) observed 1300 UTC 23 January 2019
Temperature: 20.0°C (68°F)
Dewpoint: 4.0°C (39°F) [RH = 35%]
Pressure (altimeter): 29.85 inches Hg (1011.0 mb)
Winds: calm
Visibility: 6 or more miles (10+ km)
Ceiling: 2500 feet AGL
Clouds: broken clouds at 2500 feet AGL
Weather: no significant weather observed at this time

METAR text: HECA 231230Z 04004KT 9999 BKN025 20/05 Q1011 NOSIG
Conditions at: HECA (CAIRO INTL AIRPO, EG) observed 1230 UTC 23 January 2019
Temperature: 20.0°C (68°F)
Dewpoint: 5.0°C (41°F) [RH = 37%]
Pressure (altimeter): 29.85 inches Hg (1011.0 mb)
Winds: from the NE (40 degrees) at 5 MPH (4 knots; 2.1 m/s)
Visibility: 6 or more miles (10+ km)
Ceiling: 2500 feet AGL
Clouds: broken clouds at 2500 feet AGL
Weather: no significant weather observed at this time

METAR text: HECA 231200Z 05003KT 9999 BKN025 20/03 Q1011 NOSIG
Conditions at: HECA (CAIRO INTL AIRPO, EG) observed 1200 UTC 23 January 2019
Temperature: 20.0°C (68°F)
Dewpoint: 3.0°C (37°F) [RH = 32%]
Pressure (altimeter): 29.85 inches Hg (1011.0 mb)
Winds: from the NE (50 degrees) at 3 MPH (3 knots; 1.5 m/s)
Visibility: 6 or more miles (10+ km)
Ceiling: 2500 feet AGL
Clouds: broken clouds at 2500 feet AGL
Weather: no significant weather observed at this time

METAR text: HECA 231100Z 09005KT 9999 BKN025 19/02 Q1012 NOSIG
Conditions at: HECA (CAIRO INTL AIRPO, EG) observed 1100 UTC 23 January 2019
Temperature: 19.0°C (66°F)
Dewpoint: 2.0°C (36°F) [RH = 32%]
Pressure (altimeter): 29.88 inches Hg (1012.0 mb)
Winds: from the E (90 degrees) at 6 MPH (5 knots; 2.6 m/s)
Visibility: 6 or more miles (10+ km)
Ceiling: 2500 feet AGL
Clouds: broken clouds at 2500 feet AGL
Weather: no significant weather observed at this time

METAR text: HECA 231030Z 08006KT 9999 BKN025 19/03 Q1012 NOSIG
Conditions at: HECA (CAIRO INTL AIRPO, EG) observed 1030 UTC 23 January 2019
Temperature: 19.0°C (66°F)
Dewpoint: 3.0°C (37°F) [RH = 34%]
Pressure (altimeter): 29.88 inches Hg (1012.0 mb)
Winds: from the E (80 degrees) at 7 MPH (6 knots; 3.1 m/s)
Visibility: 6 or more miles (10+ km)
Ceiling: 2500 feet AGL
Clouds: broken clouds at 2500 feet AGL
Weather: no significant weather observed at this time

METAR text: HECA 231000Z 05006KT 9999 BKN025 18/03 Q1013
Conditions at: HECA (CAIRO INTL AIRPO, EG) observed 1000 UTC 23 January 2019
Temperature: 18.0°C (64°F)
Dewpoint: 3.0°C (37°F) [RH = 37%]
Pressure (altimeter): 29.91 inches Hg (1013.0 mb)
Winds: from the NE (50 degrees) at 7 MPH (6 knots; 3.1 m/s)
Visibility: 6 or more miles (10+ km)
Ceiling: 2500 feet AGL
Clouds: broken clouds at 2500 feet AGL
Weather: no significant weather observed at this time

METAR text: HECA 230930Z 05006KT 9999 BKN025 18/07 Q1014 NOSIG
Conditions at: HECA (CAIRO INTL AIRPO, EG) observed 0930 UTC 23 January 2019
Temperature: 18.0°C (64°F)
Dewpoint: 7.0°C (45°F) [RH = 49%]
Pressure (altimeter): 29.94 inches Hg (1014.0 mb)
Winds: from the NE (50 degrees) at 7 MPH (6 knots; 3.1 m/s)
Visibility: 6 or more miles (10+ km)
Ceiling: 2500 feet AGL
Clouds: broken clouds at 2500 feet AGL
Weather: no significant weather observed at this time

METAR text: HECA 230900Z 05004KT 9999 BKN025 17/07 Q1014 NOSIG
Conditions at: HECA (CAIRO INTL AIRPO, EG) observed 0900 UTC 23 January 2019
Temperature: 17.0°C (63°F)
Dewpoint: 7.0°C (45°F) [RH = 52%]
Pressure (altimeter): 29.94 inches Hg (1014.0 mb)
Winds: from the NE (50 degrees) at 5 MPH (4 knots; 2.1 m/s)
Visibility: 6 or more miles (10+ km)
Ceiling: 2500 feet AGL
Clouds: broken clouds at 2500 feet AGL
Weather: no significant weather observed at this time

METAR text: HECA 230830Z 06005KT 9999 BKN025 17/07 Q1015 NOSIG
Conditions at: HECA (CAIRO INTL AIRPO, EG) observed 0830 UTC 23 January 2019
Temperature: 17.0°C (63°F)
Dewpoint: 7.0°C (45°F) [RH = 52%]
Pressure (altimeter): 29.97 inches Hg (1015.0 mb)
Winds: from the ENE (60 degrees) at 6 MPH (5 knots; 2.6 m/s)
Visibility: 6 or more miles (10+ km)
Ceiling: 2500 feet AGL
Clouds: broken clouds at 2500 feet AGL
Weather: no significant weather observed at this time

METAR text: HECA 230800Z 05007KT 9999 BKN025 16/08 Q1015 NOSIG
Conditions at: HECA (CAIRO INTL AIRPO, EG) observed 0800 UTC 23 January 2019
Temperature: 16.0°C (61°F)
Dewpoint: 8.0°C (46°F) [RH = 59%]
Pressure (altimeter): 29.97 inches Hg (1015.0 mb)
Winds: from the NE (50 degrees) at 8 MPH (7 knots; 3.6 m/s)
Visibility: 6 or more miles (10+ km)
Ceiling: 2500 feet AGL
Clouds: broken clouds at 2500 feet AGL
Weather: no significant weather observed at this time

METAR text: HECA 230730Z 07007KT 6000 SCT025 15/09 Q1015 NOSIG
Conditions at: HECA (CAIRO INTL AIRPO, EG) observed 0730 UTC 23 January 2019
Temperature: 15.0°C (59°F)
Dewpoint: 9.0°C (48°F) [RH = 67%]
Pressure (altimeter): 29.97 inches Hg (1015.0 mb)
Winds: from the ENE (70 degrees) at 8 MPH (7 knots; 3.6 m/s)
Visibility: 4 miles ( 6 km)
Ceiling: at least 12,000 feet AGL
Clouds: scattered clouds at 2500 feet AGL
Weather: no significant weather observed at this time

METAR text: HECA 230700Z 05006KT 6000 SCT025 14/09 Q1015 NOSIG
Conditions at: HECA (CAIRO INTL AIRPO, EG) observed 0700 UTC 23 January 2019
Temperature: 14.0°C (57°F)
Dewpoint: 9.0°C (48°F) [RH = 72%]
Pressure (altimeter): 29.97 inches Hg (1015.0 mb)
Winds: from the NE (50 degrees) at 7 MPH (6 knots; 3.1 m/s)
Visibility: 4 miles ( 6 km)
Ceiling: at least 12,000 feet AGL
Clouds: scattered clouds at 2500 feet AGL
Weather: no significant weather observed at this time

METAR text: HECA 230630Z 05006KT 6000 SCT025 13/09 Q1015 NOSIG
Conditions at: HECA (CAIRO INTL AIRPO, EG) observed 0630 UTC 23 January 2019
Temperature: 13.0°C (55°F)
Dewpoint: 9.0°C (48°F) [RH = 77%]
Pressure (altimeter): 29.97 inches Hg (1015.0 mb)
Winds: from the NE (50 degrees) at 7 MPH (6 knots; 3.1 m/s)
Visibility: 4 miles ( 6 km)
Ceiling: at least 12,000 feet AGL
Clouds: scattered clouds at 2500 feet AGL
Weather: no significant weather observed at this time

METAR text: HECA 230600Z 05003KT 4000 BR SCT025 11/09 Q1016 NOSIG
Conditions at: HECA (CAIRO INTL AIRPO, EG) observed 0600 UTC 23 January 2019
Temperature: 11.0°C (52°F)
Dewpoint: 9.0°C (48°F) [RH = 87%]
Pressure (altimeter): 30.00 inches Hg (1016.0 mb)
Winds: from the NE (50 degrees) at 3 MPH (3 knots; 1.5 m/s)
Visibility: 2.49 miles (4.01 km)
Ceiling: at least 12,000 feet AGL
Clouds: scattered clouds at 2500 feet AGL
Weather: BR  (mist)

METAR text: HECA 230530Z 07005KT 4000 BR NSC 11/09 Q1016 NOSIG
Conditions at: HECA (CAIRO INTL AIRPO, EG) observed 0530 UTC 23 January 2019
Temperature: 11.0°C (52°F)
Dewpoint: 9.0°C (48°F) [RH = 87%]
Pressure (altimeter): 30.00 inches Hg (1016.0 mb)
Winds: from the ENE (70 degrees) at 6 MPH (5 knots; 2.6 m/s)
Visibility: 2.49 miles (4.01 km)
Ceiling: at least 12,000 feet AGL
Clouds: sky clear below 12,000 feet AGL
Weather: BR  (mist)

METAR text: HECA 230500Z 07005KT 6000 NSC 11/08 Q1015 NOSIG
Conditions at: HECA (CAIRO INTL AIRPO, EG) observed 0500 UTC 23 January 2019
Temperature: 11.0°C (52°F)
Dewpoint: 8.0°C (46°F) [RH = 82%]
Pressure (altimeter): 29.97 inches Hg (1015.0 mb)
Winds: from the ENE (70 degrees) at 6 MPH (5 knots; 2.6 m/s)
Visibility: 4 miles ( 6 km)
Ceiling: at least 12,000 feet AGL
Clouds: sky clear below 12,000 feet AGL
Weather: no significant weather observed at this time

METAR text: HECA 230400Z 05003KT 6000 NSC 11/09 Q1015 NOSIG
Conditions at: HECA (CAIRO INTL AIRPO, EG) observed 0400 UTC 23 January 2019
Temperature: 11.0°C (52°F)
Dewpoint: 9.0°C (48°F) [RH = 87%]
Pressure (altimeter): 29.97 inches Hg (1015.0 mb)
Winds: from the NE (50 degrees) at 3 MPH (3 knots; 1.5 m/s)
Visibility: 4 miles ( 6 km)
Ceiling: at least 12,000 feet AGL
Clouds: sky clear below 12,000 feet AGL
Weather: no significant weather observed at this time

METAR text: HECA 230330Z 05003KT 6000 NSC 11/09 Q1015 NOSIG
Conditions at: HECA (CAIRO INTL AIRPO, EG) observed 0330 UTC 23 January 2019
Temperature: 11.0°C (52°F)
Dewpoint: 9.0°C (48°F) [RH = 87%]
Pressure (altimeter): 29.97 inches Hg (1015.0 mb)
Winds: from the NE (50 degrees) at 3 MPH (3 knots; 1.5 m/s)
Visibility: 4 miles ( 6 km)
Ceiling: at least 12,000 feet AGL
Clouds: sky clear below 12,000 feet AGL
Weather: no significant weather observed at this time

METAR text: HECA 230300Z 05003KT 6000 NSC 11/09 Q1015 NOSIG
Conditions at: HECA (CAIRO INTL AIRPO, EG) observed 0300 UTC 23 January 2019
Temperature: 11.0°C (52°F)
Dewpoint: 9.0°C (48°F) [RH = 87%]
Pressure (altimeter): 29.97 inches Hg (1015.0 mb)
Winds: from the NE (50 degrees) at 3 MPH (3 knots; 1.5 m/s)
Visibility: 4 miles ( 6 km)
Ceiling: at least 12,000 feet AGL
Clouds: sky clear below 12,000 feet AGL
Weather: no significant weather observed at this time

METAR text: HECA 230230Z 09009KT 6000 NSC 12/09 Q1016 NOSIG
Conditions at: HECA (CAIRO INTL AIRPO, EG) observed 0230 UTC 23 January 2019
Temperature: 12.0°C (54°F)
Dewpoint: 9.0°C (48°F) [RH = 82%]
Pressure (altimeter): 30.00 inches Hg (1016.0 mb)
Winds: from the E (90 degrees) at 10 MPH (9 knots; 4.6 m/s)
Visibility: 4 miles ( 6 km)
Ceiling: at least 12,000 feet AGL
Clouds: sky clear below 12,000 feet AGL
Weather: no significant weather observed at this time

METAR text: HECA 230200Z 09009KT 6000 NSC 12/09 1016
Conditions at: HECA (CAIRO INTL AIRPO, EG) observed 0200 UTC 23 January 2019
Temperature: 12.0°C (54°F)
Dewpoint: 9.0°C (48°F) [RH = 82%]
Pressure (altimeter): missing
Winds: from the E (90 degrees) at 10 MPH (9 knots; 4.6 m/s)
Visibility: 4 miles ( 6 km)
Ceiling: at least 12,000 feet AGL
Clouds: sky clear below 12,000 feet AGL
Weather: no significant weather observed at this time

METAR text: HECA 230130Z 09009KT 6000 NSC 12/09 Q1016 NOSIG
Conditions at: HECA (CAIRO INTL AIRPO, EG) observed 0130 UTC 23 January 2019
Temperature: 12.0°C (54°F)
Dewpoint: 9.0°C (48°F) [RH = 82%]
Pressure (altimeter): 30.00 inches Hg (1016.0 mb)
Winds: from the E (90 degrees) at 10 MPH (9 knots; 4.6 m/s)
Visibility: 4 miles ( 6 km)
Ceiling: at least 12,000 feet AGL
Clouds: sky clear below 12,000 feet AGL
Weather: no significant weather observed at this time

METAR text: HECA 230100Z 09009KT 6000 NSC 12/09 Q1016 NOSIG
Conditions at: HECA (CAIRO INTL AIRPO, EG) observed 0100 UTC 23 January 2019
Temperature: 12.0°C (54°F)
Dewpoint: 9.0°C (48°F) [RH = 82%]
Pressure (altimeter): 30.00 inches Hg (1016.0 mb)
Winds: from the E (90 degrees) at 10 MPH (9 knots; 4.6 m/s)
Visibility: 4 miles ( 6 km)
Ceiling: at least 12,000 feet AGL
Clouds: sky clear below 12,000 feet AGL
Weather: no significant weather observed at this time

METAR text: HECA 230030Z 09007KT 6000 NSC 12/09 Q1017
Conditions at: HECA (CAIRO INTL AIRPO, EG) observed 0030 UTC 23 January 2019
Temperature: 12.0°C (54°F)
Dewpoint: 9.0°C (48°F) [RH = 82%]
Pressure (altimeter): 30.03 inches Hg (1017.0 mb)
Winds: from the E (90 degrees) at 8 MPH (7 knots; 3.6 m/s)
Visibility: 4 miles ( 6 km)
Ceiling: at least 12,000 feet AGL
Clouds: sky clear below 12,000 feet AGL
Weather: no significant weather observed at this time

METAR text: HECA 230000Z 09007KT 6000 NSC 12/09 Q1017 NOSIG
Conditions at: HECA (CAIRO INTL AIRPO, EG) observed 0000 UTC 23 January 2019
Temperature: 12.0°C (54°F)
Dewpoint: 9.0°C (48°F) [RH = 82%]
Pressure (altimeter): 30.03 inches Hg (1017.0 mb)
Winds: from the E (90 degrees) at 8 MPH (7 knots; 3.6 m/s)
Visibility: 4 miles ( 6 km)
Ceiling: at least 12,000 feet AGL
Clouds: sky clear below 12,000 feet AGL
Weather: no significant weather observed at this time

METAR text: HECA 222330Z 09008KT 4000 BR NSC 12/09 Q1017 NOSIG
Conditions at: HECA (CAIRO INTL AIRPO, EG) observed 2330 UTC 22 January 2019
Temperature: 12.0°C (54°F)
Dewpoint: 9.0°C (48°F) [RH = 82%]
Pressure (altimeter): 30.03 inches Hg (1017.0 mb)
Winds: from the E (90 degrees) at 9 MPH (8 knots; 4.1 m/s)
Visibility: 2.49 miles (4.01 km)
Ceiling: at least 12,000 feet AGL
Clouds: sky clear below 12,000 feet AGL
Weather: BR  (mist)

METAR text: HECA 222300Z 08008KT 2000 HZ NSC 13/09 Q1017 NOSIG
Conditions at: HECA (CAIRO INTL AIRPO, EG) observed 2300 UTC 22 January 2019
Temperature: 13.0°C (55°F)
Dewpoint: 9.0°C (48°F) [RH = 77%]
Pressure (altimeter): 30.03 inches Hg (1017.0 mb)
Winds: from the E (80 degrees) at 9 MPH (8 knots; 4.1 m/s)
Visibility: 1.24 miles (2.00 km)
Ceiling: at least 12,000 feet AGL
Clouds: sky clear below 12,000 feet AGL
Weather: HZ  (haze)

METAR text: HECA 222230Z 08007KT 2000 HZ NSC 13/09 Q1017 NOSIG
Conditions at: HECA (CAIRO INTL AIRPO, EG) observed 2230 UTC 22 January 2019
Temperature: 13.0°C (55°F)
Dewpoint: 9.0°C (48°F) [RH = 77%]
Pressure (altimeter): 30.03 inches Hg (1017.0 mb)
Winds: from the E (80 degrees) at 8 MPH (7 knots; 3.6 m/s)
Visibility: 1.24 miles (2.00 km)
Ceiling: at least 12,000 feet AGL
Clouds: sky clear below 12,000 feet AGL
Weather: HZ  (haze)

METAR text: HECA 222200Z 07007KT 2000 HZ NSC 13/09 Q1017 NOSIG
Conditions at: HECA (CAIRO INTL AIRPO, EG) observed 2200 UTC 22 January 2019
Temperature: 13.0°C (55°F)
Dewpoint: 9.0°C (48°F) [RH = 77%]
Pressure (altimeter): 30.03 inches Hg (1017.0 mb)
Winds: from the ENE (70 degrees) at 8 MPH (7 knots; 3.6 m/s)
Visibility: 1.24 miles (2.00 km)
Ceiling: at least 12,000 feet AGL
Clouds: sky clear below 12,000 feet AGL
Weather: HZ  (haze)

METAR text: HECA 222130Z 06003KT 2000 HZ NSC 14/10 Q1018 NOSIG
Conditions at: HECA (CAIRO INTL AIRPO, EG) observed 2130 UTC 22 January 2019
Temperature: 14.0°C (57°F)
Dewpoint: 10.0°C (50°F) [RH = 77%]
Pressure (altimeter): 30.06 inches Hg (1018.0 mb)
Winds: from the ENE (60 degrees) at 3 MPH (3 knots; 1.5 m/s)
Visibility: 1.24 miles (2.00 km)
Ceiling: at least 12,000 feet AGL
Clouds: sky clear below 12,000 feet AGL
Weather: HZ  (haze)

METAR text: HECA 222100Z 06003KT 2000 HZ FEW025 14/10 Q1018 NOSIG
Conditions at: HECA (CAIRO INTL AIRPO, EG) observed 2100 UTC 22 January 2019
Temperature: 14.0°C (57°F)
Dewpoint: 10.0°C (50°F) [RH = 77%]
Pressure (altimeter): 30.06 inches Hg (1018.0 mb)
Winds: from the ENE (60 degrees) at 3 MPH (3 knots; 1.5 m/s)
Visibility: 1.24 miles (2.00 km)
Ceiling: at least 12,000 feet AGL
Clouds: few clouds at 2500 feet AGL
Weather: HZ  (haze)

METAR text: HECA 222030Z 00000KT 2000 HZ FEW025 14/10 Q1018 NOSIG
Conditions at: HECA (CAIRO INTL AIRPO, EG) observed 2030 UTC 22 January 2019
Temperature: 14.0°C (57°F)
Dewpoint: 10.0°C (50°F) [RH = 77%]
Pressure (altimeter): 30.06 inches Hg (1018.0 mb)
Winds: calm
Visibility: 1.24 miles (2.00 km)
Ceiling: at least 12,000 feet AGL
Clouds: few clouds at 2500 feet AGL
Weather: HZ  (haze)

METAR text: HECA 222000Z 00000KT 2000 HZ FEW025 15/10 Q1018 NOSIG
Conditions at: HECA (CAIRO INTL AIRPO, EG) observed 2000 UTC 22 January 2019
Temperature: 15.0°C (59°F)
Dewpoint: 10.0°C (50°F) [RH = 72%]
Pressure (altimeter): 30.06 inches Hg (1018.0 mb)
Winds: calm
Visibility: 1.24 miles (2.00 km)
Ceiling: at least 12,000 feet AGL
Clouds: few clouds at 2500 feet AGL
Weather: HZ  (haze)

METAR text: HECA 221930Z 00000KT 2000 HZ FEW025 15/10 Q1018 NOSIG
Conditions at: HECA (CAIRO INTL AIRPO, EG) observed 1930 UTC 22 January 2019
Temperature: 15.0°C (59°F)
Dewpoint: 10.0°C (50°F) [RH = 72%]
Pressure (altimeter): 30.06 inches Hg (1018.0 mb)
Winds: calm
Visibility: 1.24 miles (2.00 km)
Ceiling: at least 12,000 feet AGL
Clouds: few clouds at 2500 feet AGL
Weather: HZ  (haze)

METAR text: HECA 221900Z 00000KT 2000 HZ FEW025 15/10 Q1018 NOSIG
Conditions at: HECA (CAIRO INTL AIRPO, EG) observed 1900 UTC 22 January 2019
Temperature: 15.0°C (59°F)
Dewpoint: 10.0°C (50°F) [RH = 72%]
Pressure (altimeter): 30.06 inches Hg (1018.0 mb)
Winds: calm
Visibility: 1.24 miles (2.00 km)
Ceiling: at least 12,000 feet AGL
Clouds: few clouds at 2500 feet AGL
Weather: HZ  (haze)

METAR text: HECA 221830Z 00000KT 2000 HZ NSC 15/10 Q1018 NOSIG
Conditions at: HECA (CAIRO INTL AIRPO, EG) observed 1830 UTC 22 January 2019
Temperature: 15.0°C (59°F)
Dewpoint: 10.0°C (50°F) [RH = 72%]
Pressure (altimeter): 30.06 inches Hg (1018.0 mb)
Winds: calm
Visibility: 1.24 miles (2.00 km)
Ceiling: at least 12,000 feet AGL
Clouds: sky clear below 12,000 feet AGL
Weather: HZ  (haze)

METAR text: HECA 221800Z 00000KT 2000 HZ NSC 16/10 Q1017 NOSIG
Conditions at: HECA (CAIRO INTL AIRPO, EG) observed 1800 UTC 22 January 2019
Temperature: 16.0°C (61°F)
Dewpoint: 10.0°C (50°F) [RH = 68%]
Pressure (altimeter): 30.03 inches Hg (1017.0 mb)
Winds: calm
Visibility: 1.24 miles (2.00 km)
Ceiling: at least 12,000 feet AGL
Clouds: sky clear below 12,000 feet AGL
Weather: HZ  (haze)

METAR text: HECA 221730Z 02004KT 2000 HZ NSC 16/10 Q1017 NOSIG
Conditions at: HECA (CAIRO INTL AIRPO, EG) observed 1730 UTC 22 January 2019
Temperature: 16.0°C (61°F)
Dewpoint: 10.0°C (50°F) [RH = 68%]
Pressure (altimeter): 30.03 inches Hg (1017.0 mb)
Winds: from the NNE (20 degrees) at 5 MPH (4 knots; 2.1 m/s)
Visibility: 1.24 miles (2.00 km)
Ceiling: at least 12,000 feet AGL
Clouds: sky clear below 12,000 feet AGL
Weather: HZ  (haze)

METAR text: HECA 221700Z 34004KT 2000 HZ NSC 17/11 Q1017
Conditions at: HECA (CAIRO INTL AIRPO, EG) observed 1700 UTC 22 January 2019
Temperature: 17.0°C (63°F)
Dewpoint: 11.0°C (52°F) [RH = 68%]
Pressure (altimeter): 30.03 inches Hg (1017.0 mb)
Winds: from the NNW (340 degrees) at 5 MPH (4 knots; 2.1 m/s)
Visibility: 1.24 miles (2.00 km)
Ceiling: at least 12,000 feet AGL
Clouds: sky clear below 12,000 feet AGL
Weather: HZ  (haze)

METAR text: HECA 221630Z 34004KT 2000 HZ NSC 17/11 Q1017 NOSIG
Conditions at: HECA (CAIRO INTL AIRPO, EG) observed 1630 UTC 22 January 2019
Temperature: 17.0°C (63°F)
Dewpoint: 11.0°C (52°F) [RH = 68%]
Pressure (altimeter): 30.03 inches Hg (1017.0 mb)
Winds: from the NNW (340 degrees) at 5 MPH (4 knots; 2.1 m/s)
Visibility: 1.24 miles (2.00 km)
Ceiling: at least 12,000 feet AGL
Clouds: sky clear below 12,000 feet AGL
Weather: HZ  (haze)

METAR text: HECA 221600Z 34004KT 2000 HZ NSC 17/11 Q1017 NOSIG
Conditions at: HECA (CAIRO INTL AIRPO, EG) observed 1600 UTC 22 January 2019
Temperature: 17.0°C (63°F)
Dewpoint: 11.0°C (52°F) [RH = 68%]
Pressure (altimeter): 30.03 inches Hg (1017.0 mb)
Winds: from the NNW (340 degrees) at 5 MPH (4 knots; 2.1 m/s)
Visibility: 1.24 miles (2.00 km)
Ceiling: at least 12,000 feet AGL
Clouds: sky clear below 12,000 feet AGL
Weather: HZ  (haze)

METAR text: HECA 221530Z 34004KT 3000 HZ NSC 17/10 Q1017 NOSIG
Conditions at: HECA (CAIRO INTL AIRPO, EG) observed 1530 UTC 22 January 2019
Temperature: 17.0°C (63°F)
Dewpoint: 10.0°C (50°F) [RH = 63%]
Pressure (altimeter): 30.03 inches Hg (1017.0 mb)
Winds: from the NNW (340 degrees) at 5 MPH (4 knots; 2.1 m/s)
Visibility: 1.86 miles (2.99 km)
Ceiling: at least 12,000 feet AGL
Clouds: sky clear below 12,000 feet AGL
Weather: HZ  (haze)

METAR text: HECA 221500Z 02006KT 4000 HZ NSC 18/10 Q1017 TEMPO 3000
Conditions at: HECA (CAIRO INTL AIRPO, EG) observed 1500 UTC 22 January 2019
Temperature: 18.0°C (64°F)
Dewpoint: 10.0°C (50°F) [RH = 59%]
Pressure (altimeter): 30.03 inches Hg (1017.0 mb)
Winds: from the NNE (20 degrees) at 7 MPH (6 knots; 3.1 m/s)
Visibility: 2.49 miles (4.01 km)
Ceiling: at least 12,000 feet AGL
Clouds: sky clear below 12,000 feet AGL
Weather: HZ  (haze)

METAR text: HECA 221430Z 33007KT CAVOK 18/10 Q1017 NOSIG
Conditions at: HECA (CAIRO INTL AIRPO, EG) observed 1430 UTC 22 January 2019
Temperature: 18.0°C (64°F)
Dewpoint: 10.0°C (50°F) [RH = 59%]
Pressure (altimeter): 30.03 inches Hg (1017.0 mb)
Winds: from the NNW (330 degrees) at 8 MPH (7 knots; 3.6 m/s)
Visibility: 6 or more miles (10+ km)
Ceiling: ceiling and visibility are OK
Clouds: unknown
Weather: no significant weather observed at this time

METAR text: HECA 221400Z 33006KT CAVOK 18/08 Q1017 NOSIG
Conditions at: HECA (CAIRO INTL AIRPO, EG) observed 1400 UTC 22 January 2019
Temperature: 18.0°C (64°F)
Dewpoint: 8.0°C (46°F) [RH = 52%]
Pressure (altimeter): 30.03 inches Hg (1017.0 mb)
Winds: from the NNW (330 degrees) at 7 MPH (6 knots; 3.1 m/s)
Visibility: 6 or more miles (10+ km)
Ceiling: ceiling and visibility are OK
Clouds: unknown
Weather: no significant weather observed at this time

METAR text: HECA 221330Z 33006KT CAVOK 18/09 Q1017 NOSIG
Conditions at: HECA (CAIRO INTL AIRPO, EG) observed 1330 UTC 22 January 2019
Temperature: 18.0°C (64°F)
Dewpoint: 9.0°C (48°F) [RH = 56%]
Pressure (altimeter): 30.03 inches Hg (1017.0 mb)
Winds: from the NNW (330 degrees) at 7 MPH (6 knots; 3.1 m/s)
Visibility: 6 or more miles (10+ km)
Ceiling: ceiling and visibility are OK
Clouds: unknown
Weather: no significant weather observed at this time

METAR text: HECA 221300Z 32006KT 8000 NSC 18/09 Q1017 NOSIG
Conditions at: HECA (CAIRO INTL AIRPO, EG) observed 1300 UTC 22 January 2019
Temperature: 18.0°C (64°F)
Dewpoint: 9.0°C (48°F) [RH = 56%]
Pressure (altimeter): 30.03 inches Hg (1017.0 mb)
Winds: from the NW (320 degrees) at 7 MPH (6 knots; 3.1 m/s)
Visibility: 5 miles ( 8 km)
Ceiling: at least 12,000 feet AGL
Clouds: sky clear below 12,000 feet AGL
Weather: no significant weather observed at this time

METAR text: HECA 221200Z 32006KT 8000 NSC 17/10 Q1017 NOSIG
Conditions at: HECA (CAIRO INTL AIRPO, EG) observed 1200 UTC 22 January 2019
Temperature: 17.0°C (63°F)
Dewpoint: 10.0°C (50°F) [RH = 63%]
Pressure (altimeter): 30.03 inches Hg (1017.0 mb)
Winds: from the NW (320 degrees) at 7 MPH (6 knots; 3.1 m/s)
Visibility: 5 miles ( 8 km)
Ceiling: at least 12,000 feet AGL
Clouds: sky clear below 12,000 feet AGL
Weather: no significant weather observed at this time

METAR text: HECA 221130Z 32007KT 6000 NSC 17/11 Q1017 NOSIG
Conditions at: HECA (CAIRO INTL AIRPO, EG) observed 1130 UTC 22 January 2019
Temperature: 17.0°C (63°F)
Dewpoint: 11.0°C (52°F) [RH = 68%]
Pressure (altimeter): 30.03 inches Hg (1017.0 mb)
Winds: from the NW (320 degrees) at 8 MPH (7 knots; 3.6 m/s)
Visibility: 4 miles ( 6 km)
Ceiling: at least 12,000 feet AGL
Clouds: sky clear below 12,000 feet AGL
Weather: no significant weather observed at this time

METAR text: HECA 221115Z 34007KT 5000 BR NSC 16/11 Q1017 BECMG 6000
Conditions at: HECA (CAIRO INTL AIRPO, EG) observed 1115 UTC 22 January 2019
Temperature: 16.0°C (61°F)
Dewpoint: 11.0°C (52°F) [RH = 72%]
Pressure (altimeter): 30.03 inches Hg (1017.0 mb)
Winds: from the NNW (340 degrees) at 8 MPH (7 knots; 3.6 m/s)
Visibility: 3 miles ( 5 km)
Ceiling: at least 12,000 feet AGL
Clouds: sky clear below 12,000 feet AGL
Weather: BR  (mist)

METAR text: HECA 221100Z 33006KT 3000 BR NSC 16/11 Q1017 BECMG 6000
Conditions at: HECA (CAIRO INTL AIRPO, EG) observed 1100 UTC 22 January 2019
Temperature: 16.0°C (61°F)
Dewpoint: 11.0°C (52°F) [RH = 72%]
Pressure (altimeter): 30.03 inches Hg (1017.0 mb)
Winds: from the NNW (330 degrees) at 7 MPH (6 knots; 3.1 m/s)
Visibility: 1.86 miles (2.99 km)
Ceiling: at least 12,000 feet AGL
Clouds: sky clear below 12,000 feet AGL
Weather: BR  (mist)

METAR text: HECA 221030Z 33006KT 3000 BR NSC 16/11 Q1017 BECMG 6000
Conditions at: HECA (CAIRO INTL AIRPO, EG) observed 1030 UTC 22 January 2019
Temperature: 16.0°C (61°F)
Dewpoint: 11.0°C (52°F) [RH = 72%]
Pressure (altimeter): 30.03 inches Hg (1017.0 mb)
Winds: from the NNW (330 degrees) at 7 MPH (6 knots; 3.1 m/s)
Visibility: 1.86 miles (2.99 km)
Ceiling: at least 12,000 feet AGL
Clouds: sky clear below 12,000 feet AGL
Weather: BR  (mist)

METAR text: HECA 221000Z 33005KT 2000 BR NSC 17/11 Q1018 BECMG 6000
Conditions at: HECA (CAIRO INTL AIRPO, EG) observed 1000 UTC 22 January 2019
Temperature: 17.0°C (63°F)
Dewpoint: 11.0°C (52°F) [RH = 68%]
Pressure (altimeter): 30.06 inches Hg (1018.0 mb)
Winds: from the NNW (330 degrees) at 6 MPH (5 knots; 2.6 m/s)
Visibility: 1.24 miles (2.00 km)
Ceiling: at least 12,000 feet AGL
Clouds: sky clear below 12,000 feet AGL
Weather: BR  (mist)

METAR text: HECA 220930Z 34006KT 2000 BR NSC 16/11 Q1018 BECMG 6000
Conditions at: HECA (CAIRO INTL AIRPO, EG) observed 0930 UTC 22 January 2019
Temperature: 16.0°C (61°F)
Dewpoint: 11.0°C (52°F) [RH = 72%]
Pressure (altimeter): 30.06 inches Hg (1018.0 mb)
Winds: from the NNW (340 degrees) at 7 MPH (6 knots; 3.1 m/s)
Visibility: 1.24 miles (2.00 km)
Ceiling: at least 12,000 feet AGL
Clouds: sky clear below 12,000 feet AGL
Weather: BR  (mist)

METAR text: HECA 220900Z 36004KT 3000 BR NSC 15/11 Q1018 BECMG 6000
Conditions at: HECA (CAIRO INTL AIRPO, EG) observed 0900 UTC 22 January 2019
Temperature: 15.0°C (59°F)
Dewpoint: 11.0°C (52°F) [RH = 77%]
Pressure (altimeter): 30.06 inches Hg (1018.0 mb)
Winds: from the N (360 degrees) at 5 MPH (4 knots; 2.1 m/s)
Visibility: 1.86 miles (2.99 km)
Ceiling: at least 12,000 feet AGL
Clouds: sky clear below 12,000 feet AGL
Weather: BR  (mist)

METAR text: HECA 220830Z 32004KT 2000 BR NSC 15/10 Q1019 BECMG 6000
Conditions at: HECA (CAIRO INTL AIRPO, EG) observed 0830 UTC 22 January 2019
Temperature: 15.0°C (59°F)
Dewpoint: 10.0°C (50°F) [RH = 72%]
Pressure (altimeter): 30.09 inches Hg (1019.0 mb)
Winds: from the NW (320 degrees) at 5 MPH (4 knots; 2.1 m/s)
Visibility: 1.24 miles (2.00 km)
Ceiling: at least 12,000 feet AGL
Clouds: sky clear below 12,000 feet AGL
Weather: BR  (mist)

METAR text: HECA 220800Z 34005KT 0500 R05 L/B2000 R23R/1200 FG NSC 13/10 Q1018
Conditions at: HECA (CAIRO INTL AIRPO, EG) observed 0800 UTC 22 January 2019
Temperature: 13.0°C (55°F)
Dewpoint: 10.0°C (50°F) [RH = 82%]
Pressure (altimeter): 30.06 inches Hg (1018.0 mb)
Winds: from the NNW (340 degrees) at 6 MPH (5 knots; 2.6 m/s)
Visibility: 0.31 miles (0.50 km)
Ceiling: at least 12,000 feet AGL
Clouds: sky clear below 12,000 feet AGL
Weather: FG  (fog)

METAR text: HECA 220700Z 00000KT 2000 BR NSC 12/10 Q1018 NOSIG
Conditions at: HECA (CAIRO INTL AIRPO, EG) observed 0700 UTC 22 January 2019
Temperature: 12.0°C (54°F)
Dewpoint: 10.0°C (50°F) [RH = 88%]
Pressure (altimeter): 30.06 inches Hg (1018.0 mb)
Winds: calm
Visibility: 1.24 miles (2.00 km)
Ceiling: at least 12,000 feet AGL
Clouds: sky clear below 12,000 feet AGL
Weather: BR  (mist)

METAR text: HECA 220630Z 00000KT 2000 BR NSC 11/08 Q1018 NOSIG
Conditions at: HECA (CAIRO INTL AIRPO, EG) observed 0630 UTC 22 January 2019
Temperature: 11.0°C (52°F)
Dewpoint: 8.0°C (46°F) [RH = 82%]
Pressure (altimeter): 30.06 inches Hg (1018.0 mb)
Winds: calm
Visibility: 1.24 miles (2.00 km)
Ceiling: at least 12,000 feet AGL
Clouds: sky clear below 12,000 feet AGL
Weather: BR  (mist)

METAR text: HECA 220600Z 23005KT 3000 BR NSC 10/08 Q1017 NOSIG
Conditions at: HECA (CAIRO INTL AIRPO, EG) observed 0600 UTC 22 January 2019
Temperature: 10.0°C (50°F)
Dewpoint: 8.0°C (46°F) [RH = 87%]
Pressure (altimeter): 30.03 inches Hg (1017.0 mb)
Winds: from the SW (230 degrees) at 6 MPH (5 knots; 2.6 m/s)
Visibility: 1.86 miles (2.99 km)
Ceiling: at least 12,000 feet AGL
Clouds: sky clear below 12,000 feet AGL
Weather: BR  (mist)

METAR text: HECA 220530Z 33005KT 6000 NSC 10/08 Q1017 NOSIG
Conditions at: HECA (CAIRO INTL AIRPO, EG) observed 0530 UTC 22 January 2019
Temperature: 10.0°C (50°F)
Dewpoint: 8.0°C (46°F) [RH = 87%]
Pressure (altimeter): 30.03 inches Hg (1017.0 mb)
Winds: from the NNW (330 degrees) at 6 MPH (5 knots; 2.6 m/s)
Visibility: 4 miles ( 6 km)
Ceiling: at least 12,000 feet AGL
Clouds: sky clear below 12,000 feet AGL
Weather: no significant weather observed at this time

METAR text: HECA 220500Z VRB02KT CAVOK 11/07 Q1017 NOSIG
Conditions at: HECA (CAIRO INTL AIRPO, EG) observed 0500 UTC 22 January 2019
Temperature: 11.0°C (52°F)
Dewpoint: 7.0°C (45°F) [RH = 76%]
Pressure (altimeter): 30.03 inches Hg (1017.0 mb)
Winds: variable direction winds at 2 MPH (2 knots; 1.0 m/s)
Visibility: 6 or more miles (10+ km)
Ceiling: ceiling and visibility are OK
Clouds: unknown
Weather: no significant weather observed at this time

METAR text: HECA 220430Z 00000KT 6000 NSC 11/08 Q1016 NOSIG
Conditions at: HECA (CAIRO INTL AIRPO, EG) observed 0430 UTC 22 January 2019
Temperature: 11.0°C (52°F)
Dewpoint: 8.0°C (46°F) [RH = 82%]
Pressure (altimeter): 30.00 inches Hg (1016.0 mb)
Winds: calm
Visibility: 4 miles ( 6 km)
Ceiling: at least 12,000 feet AGL
Clouds: sky clear below 12,000 feet AGL
Weather: no significant weather observed at this time

METAR text: HECA 220400Z 10005KT 6000 NSC 11/07 Q1016 NOSIG
Conditions at: HECA (CAIRO INTL AIRPO, EG) observed 0400 UTC 22 January 2019
Temperature: 11.0°C (52°F)
Dewpoint: 7.0°C (45°F) [RH = 76%]
Pressure (altimeter): 30.00 inches Hg (1016.0 mb)
Winds: from the E (100 degrees) at 6 MPH (5 knots; 2.6 m/s)
Visibility: 4 miles ( 6 km)
Ceiling: at least 12,000 feet AGL
Clouds: sky clear below 12,000 feet AGL
Weather: no significant weather observed at this time

Forecast for: HECA (CAIRO INTL AIRPO, EG)
Text: TAF HECA 231100Z 2312/2418 17012G22KT 6000 SCT025
Forecast period: 1200 UTC 23 January 2019 to 1800 UTC 24 January 2019
Forecast type: FROM: standard forecast or significant change
Winds: from the S (170 degrees) at 14 MPH (12 knots; 6.2 m/s)
gusting to 25 MPH (22 knots; 11.3 m/s)
Visibility: 4 miles (6 km)
Ceiling: at least 12,000 feet AGL
Clouds: scattered clouds at 2500 feet AGL
Weather: no significant weather forecast for this period
Text: TEMPO 2403/2412 3000 SA NSC
Forecast period: 0300 to 1200 UTC 24 January 2019
Forecast type: TEMPORARY: The following changes expected for less than half the time period
Visibility: 1.86 miles (2.99 km)
Ceiling: unknown
Clouds: missing
Weather: SA  (sand)